»·PEaware :: LBQ783 KAVX-KCRQ

LBQ783 :: KAVX-KCRQ

FLIGHT INFORMATION

Flight Status: Arrived
Operator: Unknown
More flights by this operator :: More flights under this callsign
Pilot: Walter H. (552)
Aircraft: BEECH AIRCRAFT BARON
(BE58)
More flights by this aircraft type
Origin: KAVX Catalina
United States
Destination: KCRQ McClellan-Palomar
United States
More flights between these airports :: More routes between these airports
Route: +OCN
File this flight plan on PilotEdge
Remarks: TEC ROUTE CSTP53
Altitude:
(Current/Filed)
5,000ft
Speed:
(Current/Filed)
170kts
Departed: 08-Jul-20 08:00 PM
Arrived: 08-Jul-20 09:23 PM
Distance/Time
Traveled:
59nm/1:22
Distance/Time
To Go:
Arrived

Flight Plot

Page will automatically refresh every two minutes.


Map Options




Map Legend


Flown Route
Filed Route
Departure Airport
Arrival Airport
Navaid (VOR, NDB)
Fix

Horizontal Profiles

Position Reports

Time Latitude Longitude Heading Altitude Ground
Speed
08-Jul-20 19:57 33.403116 -118.415645 333 1550ft 6kts
08-Jul-20 19:58 33.402620 -118.419100 233 1556ft 19kts
08-Jul-20 19:59 33.405754 -118.414535 55 1537ft 101kts
08-Jul-20 20:00 33.427443 -118.380100 52 2458ft 141kts
08-Jul-20 20:01 33.415951 -118.339678 132 3529ft 141kts
08-Jul-20 20:02 33.390710 -118.303143 131 4559ft 142kts
08-Jul-20 20:03 33.364847 -118.264494 123 5036ft 166kts
08-Jul-20 20:04 33.354936 -118.206614 101 5001ft 184kts
08-Jul-20 20:05 33.346238 -118.145182 101 4964ft 186kts
08-Jul-20 20:06 33.337540 -118.083980 101 4953ft 186kts
08-Jul-20 20:07 33.328756 -118.022481 101 4909ft 187kts
08-Jul-20 20:08 33.319986 -117.961305 101 4902ft 186kts
08-Jul-20 20:09 33.311175 -117.900078 101 4897ft 186kts
08-Jul-20 20:10 33.302378 -117.839161 102 4889ft 186kts
08-Jul-20 20:11 33.293524 -117.778143 102 4890ft 186kts
08-Jul-20 20:12 33.284642 -117.717068 101 4890ft 186kts
08-Jul-20 20:13 33.275741 -117.656110 101 4895ft 186kts
08-Jul-20 20:14 33.266794 -117.595050 101 4898ft 186kts
08-Jul-20 20:15 33.257815 -117.533973 101 4899ft 186kts
08-Jul-20 20:28 33.400086 -118.333817 110 3717ft 139kts
08-Jul-20 20:29 33.392067 -118.308167 102 4330ft 139kts
08-Jul-20 20:30 33.381377 -118.245096 100 5073ft 168kts
08-Jul-20 20:31 33.375567 -118.210244 100 4984ft 183kts
08-Jul-20 20:32 33.369620 -118.174645 100 4976ft 185kts
08-Jul-20 20:33 33.354474 -118.084241 101 4956ft 187kts
08-Jul-20 20:34 33.348512 -118.048757 101 4961ft 187kts
08-Jul-20 20:35 33.343225 -118.017333 101 4960ft 187kts
08-Jul-20 20:36 33.326005 -117.915374 102 4940ft 187kts
08-Jul-20 20:37 33.317909 -117.867614 103 4937ft 187kts
08-Jul-20 20:38 33.306009 -117.797727 103 4928ft 186kts
08-Jul-20 20:39 33.297841 -117.749807 103 4935ft 185kts
08-Jul-20 20:40 33.290528 -117.707103 103 4939ft 186kts
08-Jul-20 20:41 33.283748 -117.667536 102 4934ft 186kts
08-Jul-20 20:42 33.275275 -117.618175 102 4983ft 184kts
08-Jul-20 20:43 33.269248 -117.583235 102 4980ft 186kts
08-Jul-20 20:44 33.253227 -117.490362 102 4986ft 186kts
08-Jul-20 20:45 33.242963 -117.431156 103 4988ft 186kts
08-Jul-20 20:46 33.235265 -117.375894 82 4996ft 188kts
08-Jul-20 20:47 33.241301 -117.325892 82 5000ft 187kts
08-Jul-20 20:48 33.249055 -117.262993 82 4989ft 187kts
08-Jul-20 20:49 33.256049 -117.207518 82 4983ft 187kts
08-Jul-20 20:50 33.263745 -117.147937 82 4984ft 187kts
08-Jul-20 20:51 33.270289 -117.098356 82 4985ft 187kts
08-Jul-20 20:52 33.264445 -117.044290 157 4937ft 163kts
08-Jul-20 20:53 33.221178 -117.023683 161 4062ft 167kts
08-Jul-20 20:54 33.188062 -117.044313 222 3576ft 132kts
08-Jul-20 20:55 33.163323 -117.071496 238 3625ft 139kts
08-Jul-20 20:56 33.155952 -117.108059 256 3272ft 125kts
08-Jul-20 20:57 33.149531 -117.147858 256 2583ft 121kts
08-Jul-20 20:58 33.143379 -117.186113 256 1910ft 122kts
08-Jul-20 20:59 33.137631 -117.221858 256 1269ft 117kts
08-Jul-20 21:00 33.131686 -117.258588 254 1020ft 107kts
08-Jul-20 21:01 33.126364 -117.290409 256 2100ft 119kts
08-Jul-20 21:02 33.119553 -117.321821 253 3046ft 131kts
08-Jul-20 21:03 33.128594 -117.365833 344 3097ft 176kts
08-Jul-20 21:04 33.153925 -117.332652 70 4248ft 147kts
08-Jul-20 21:05 33.167672 -117.289214 70 5184ft 144kts
08-Jul-20 21:06 33.183014 -117.239977 70 4978ft 186kts
08-Jul-20 21:07 33.200318 -117.184336 70 5017ft 188kts
08-Jul-20 21:08 33.215590 -117.135460 70 5018ft 187kts
08-Jul-20 21:09 33.231965 -117.083194 70 5012ft 187kts
08-Jul-20 21:10 33.239279 -117.026232 136 4759ft 191kts
08-Jul-20 21:11 33.190339 -116.988558 150 3905ft 193kts
08-Jul-20 21:12 33.149339 -116.958299 150 3865ft 181kts
08-Jul-20 21:13 33.132831 -116.916219 43 3855ft 185kts
08-Jul-20 21:14 33.159329 -116.936561 282 3892ft 172kts
08-Jul-20 21:15 33.166679 -116.981875 276 3987ft 170kts
08-Jul-20 21:16 33.163056 -117.040254 261 3942ft 166kts
08-Jul-20 21:17 33.157169 -117.087920 258 3908ft 148kts
08-Jul-20 21:18 33.151321 -117.132356 259 3093ft 141kts
08-Jul-20 21:19 33.145942 -117.171881 257 2181ft 142kts
08-Jul-20 21:20 33.137692 -117.219830 257 1482ft 135kts
08-Jul-20 21:21 33.132335 -117.254156 256 770ft 113kts
08-Jul-20 21:22 33.127443 -117.282664 233 335ft 18kts

Navigation Log

Ident Type
Flight plan parsing failed, navigation log unavailable